Time;durP1;ratioP1;P1;durP2;ratioP2;P2;SDS_P1;SDS_P2;PMS_P1;PMS_P2;Temp;Humidity;BMP_temperature;BMP_pressure;BME280_temperature;BME280_humidity;BME280_pressure;Samples;Min_cycle;Max_cycle;Signal;HPM_P1;HPM_P2
2021/05/16 00:00:23;;;;;;;12.45;4.78;;;;;;;14.64;59.40;100017.91;4992789;28;114369;-67
2021/05/16 00:02:51;;;;;;;14.40;5.18;;;;;;;14.63;59.61;100021.50;4991104;28;123954;-67
2021/05/16 00:05:20;;;;;;;14.95;5.03;;;;;;;14.62;59.59;100019.78;4990677;28;124822;-68
2021/05/16 00:07:48;;;;;;;13.05;4.75;;;;;;;14.58;59.68;100014.72;4991264;28;114463;-67
2021/05/16 00:10:17;;;;;;;23.92;5.30;;;;;;;14.56;59.66;100005.97;4992392;28;113965;-67
2021/05/16 00:12:44;;;;;;;15.10;4.53;;;;;;;14.53;59.71;100008.84;4984258;28;123452;-68
2021/05/16 00:15:14;;;;;;;19.00;4.88;;;;;;;14.51;59.79;100008.09;4991769;28;123845;-68
2021/05/16 00:17:42;;;;;;;15.10;4.60;;;;;;;14.49;59.70;100015.38;4992350;28;114224;-67
2021/05/16 00:20:13;;;;;;;22.38;5.22;;;;;;;14.48;59.97;100013.66;4991265;28;114466;-67
2021/05/16 00:22:40;;;;;;;17.95;4.35;;;;;;;14.46;60.01;100014.75;4999139;28;123930;-68
2021/05/16 00:25:12;;;;;;;18.17;4.55;;;;;;;14.46;60.03;100020.91;4980228;28;123734;-67
2021/05/16 00:27:39;;;;;;;19.00;4.40;;;;;;;14.46;59.99;100010.25;4990623;28;113275;-66
2021/05/16 00:30:13;;;;;;;20.13;4.90;;;;;;;14.45;60.33;100008.56;4980302;28;113516;-67
2021/05/16 00:32:40;;;;;;;17.58;4.50;;;;;;;14.47;60.01;100011.97;4987724;28;125003;-68
2021/05/16 00:35:10;;;;;;;18.05;4.13;;;;;;;14.44;60.01;100006.88;4991900;28;124001;-67
2021/05/16 00:37:37;;;;;;;19.13;4.10;;;;;;;14.45;60.14;100010.38;4985884;28;114321;-68
2021/05/16 00:40:06;;;;;;;19.83;4.22;;;;;;;14.44;60.03;100009.53;4993243;28;115292;-68
2021/05/16 00:42:33;;;;;;;16.67;4.00;;;;;;;14.44;59.84;100012.19;4974570;28;121974;-68
2021/05/16 00:45:07;;;;;;;13.82;3.78;;;;;;;14.43;60.14;100014.97;4990928;28;123658;-68
2021/05/16 00:47:36;;;;;;;21.77;3.78;;;;;;;14.43;60.06;100015.84;4989445;28;114604;-68
2021/05/16 00:50:07;;;;;;;18.05;3.90;;;;;;;14.44;60.07;100016.69;4990430;28;113760;-68
2021/05/16 00:52:38;;;;;;;18.75;4.40;;;;;;;14.42;60.04;100014.13;4990042;28;124456;-68
2021/05/16 00:55:07;;;;;;;20.15;4.20;;;;;;;14.42;60.02;100019.44;4998723;28;123043;-69
2021/05/16 00:57:35;;;;;;;24.05;4.53;;;;;;;14.42;60.10;100019.44;4990967;28;114561;-67
2021/05/16 01:00:07;;;;;;;26.17;3.70;;;;;;;14.42;60.23;100014.13;4990802;28;114498;-67
2021/05/16 01:02:35;;;;;;;20.88;4.32;;;;;;;14.41;60.02;100012.44;4988766;28;123528;-67
2021/05/16 01:05:04;;;;;;;22.48;4.20;;;;;;;14.41;60.12;100013.28;4990107;28;122919;-67
2021/05/16 01:07:33;;;;;;;22.02;4.00;;;;;;;14.42;59.88;100014.13;4991938;28;113818;-66
2021/05/16 01:10:04;;;;;;;15.63;3.83;;;;;;;14.42;60.02;100016.78;4981101;28;112901;-67
2021/05/16 01:12:38;;;;;;;15.38;3.95;;;;;;;14.41;60.08;100017.78;4987942;28;123271;-68
2021/05/16 01:15:12;;;;;;;24.77;4.07;;;;;;;14.42;59.98;100014.13;4988615;28;124790;-68
2021/05/16 01:17:41;;;;;;;25.33;4.75;;;;;;;14.41;60.06;100015.09;4968576;28;113205;-67
2021/05/16 01:20:10;;;;;;;23.20;3.85;;;;;;;14.40;60.05;100011.56;4991390;28;114784;-67
2021/05/16 01:22:51;;;;;;;17.13;3.60;;;;;;;14.40;60.12;100016.06;4997657;28;122414;-67
2021/05/16 01:25:18;;;;;;;18.27;3.77;;;;;;;14.41;59.88;100012.44;4988991;28;124093;-67
2021/05/16 01:27:45;;;;;;;19.65;4.38;;;;;;;14.40;60.02;100010.72;4990808;28;115330;-67
2021/05/16 01:30:14;;;;;;;20.20;3.90;;;;;;;14.40;60.14;100010.72;4989537;28;115359;-68
2021/05/16 01:32:41;;;;;;;26.02;3.92;;;;;;;14.40;59.91;100005.41;4973285;28;122593;-67
2021/05/16 01:35:08;;;;;;;23.50;4.20;;;;;;;14.40;60.11;100016.06;4989819;28;124096;-68
2021/05/16 01:37:36;;;;;;;24.92;4.72;;;;;;;14.39;59.98;100009.88;4989910;28;114611;-66
2021/05/16 01:40:05;;;;;;;24.70;4.20;;;;;;;14.38;59.91;100008.16;4964695;28;113464;-67
2021/05/16 01:42:33;;;;;;;21.92;4.20;;;;;;;14.40;60.07;100016.06;4989052;28;123621;-66
2021/05/16 01:45:04;;;;;;;23.80;4.43;;;;;;;14.39;60.04;100009.00;4991382;28;124202;-66
2021/05/16 01:47:31;;;;;;;20.27;4.20;;;;;;;14.40;59.91;100010.72;4989397;28;113070;-66
2021/05/16 01:50:09;;;;;;;21.70;4.05;;;;;;;14.40;59.99;100010.72;4976430;28;113054;-66
2021/05/16 01:52:38;;;;;;;20.35;4.15;;;;;;;14.41;60.01;100012.44;4987243;28;123900;-66
2021/05/16 01:55:08;;;;;;;18.90;4.13;;;;;;;14.40;59.88;100010.72;4991245;28;124014;-67
2021/05/16 01:57:35;;;;;;;23.58;4.40;;;;;;;14.39;59.98;100009.00;4991721;28;114678;-66
2021/05/16 02:00:06;;;;;;;25.25;4.55;;;;;;;14.37;59.91;100008.28;4990546;28;114638;-68
2021/05/16 02:02:44;;;;;;;21.92;3.97;;;;;;;14.37;59.93;100010.94;4990941;28;125257;-68
2021/05/16 02:05:15;;;;;;;25.83;4.93;;;;;;;14.38;59.98;100007.31;4988928;28;123227;-67
2021/05/16 02:07:50;;;;;;;22.15;3.92;;;;;;;14.37;59.98;100010.94;4989732;28;113660;-67
2021/05/16 02:10:20;;;;;;;23.70;4.55;;;;;;;14.39;59.98;100011.69;4990271;28;113364;-67
2021/05/16 02:12:51;;;;;;;23.25;4.10;;;;;;;14.42;59.98;100014.13;4989918;28;122992;-68
2021/05/16 02:15:22;;;;;;;23.15;4.30;;;;;;;14.44;60.01;100012.19;4995444;28;123152;-68
2021/05/16 02:17:53;;;;;;;22.25;4.35;;;;;;;14.45;59.86;100019.22;4978040;28;115416;-68
2021/05/16 02:20:21;;;;;;;23.13;4.47;;;;;;;14.46;60.14;100015.59;4989708;28;115054;-67
2021/05/16 02:22:49;;;;;;;27.27;4.50;;;;;;;14.46;59.92;100009.41;4976833;28;124443;-67
2021/05/16 02:25:20;;;;;;;22.42;4.68;;;;;;;14.45;59.93;100013.91;4973847;28;123493;-67
2021/05/16 02:27:48;;;;;;;17.85;4.43;;;;;;;14.46;59.80;100015.59;4979410;28;114347;-68
2021/05/16 02:30:19;;;;;;;21.50;4.80;;;;;;;14.45;59.83;100013.91;4989825;28;115189;-67
2021/05/16 02:32:47;;;;;;;23.13;4.85;;;;;;;14.45;59.77;100016.56;4989504;28;125401;-68
2021/05/16 02:35:14;;;;;;;27.67;5.35;;;;;;;14.44;59.74;100017.53;4989089;28;124513;-67
2021/05/16 02:37:46;;;;;;;31.10;5.40;;;;;;;14.42;59.57;100014.13;4983963;28;113028;-68
2021/05/16 02:40:15;;;;;;;27.48;5.40;;;;;;;14.42;59.91;100014.13;4987518;28;113275;-67
2021/05/16 02:42:44;;;;;;;23.02;5.13;;;;;;;14.40;59.68;100008.06;4988561;28;123443;-68
2021/05/16 02:45:13;;;;;;;25.02;5.20;;;;;;;14.41;59.68;100007.09;4972453;28;123191;-65
2021/05/16 02:47:40;;;;;;;26.70;5.95;;;;;;;14.40;59.69;100008.06;4986409;28;113381;-66
2021/05/16 02:50:11;;;;;;;26.58;5.72;;;;;;;14.41;59.74;100012.44;4988825;28;113033;-67
2021/05/16 02:52:58;;;;;;;21.65;5.10;;;;;;;14.40;59.49;100010.72;4987487;28;127822;-66
2021/05/16 02:55:30;;;;;;;25.05;5.20;;;;;;;14.36;59.37;100009.25;4988499;28;124205;-67
2021/05/16 02:57:58;;;;;;;26.60;5.93;;;;;;;14.35;59.54;100012.88;4988425;28;113388;-67
2021/05/16 03:00:30;;;;;;;22.08;5.25;;;;;;;14.34;59.57;100016.50;4988219;28;112980;-69
2021/05/16 03:02:57;;;;;;;24.63;6.03;;;;;;;14.33;59.52;100014.81;4992149;28;124577;-66
2021/05/16 03:05:25;;;;;;;26.65;5.55;;;;;;;14.33;59.52;100009.47;4992504;28;124106;-68
2021/05/16 03:07:52;;;;;;;26.73;5.63;;;;;;;14.34;59.32;100011.19;4993226;28;115587;-70
2021/05/16 03:10:19;;;;;;;24.90;5.68;;;;;;;14.32;59.34;100015.78;4981599;28;114268;-67
2021/05/16 03:12:47;;;;;;;31.55;5.90;;;;;;;14.30;59.24;100015.06;4991237;28;124450;-67
2021/05/16 03:15:17;;;;;;;24.35;5.55;;;;;;;14.30;59.25;100015.06;4991951;28;124085;-67
2021/05/16 03:17:45;;;;;;;25.23;5.88;;;;;;;14.31;59.42;100011.41;4983317;28;113235;-66
2021/05/16 03:20:13;;;;;;;25.70;5.97;;;;;;;14.31;59.45;100008.75;4993628;28;114392;-67
2021/05/16 03:22:41;;;;;;;22.42;5.60;;;;;;;14.33;59.15;100014.81;4987189;28;123183;-67
2021/05/16 03:25:10;;;;;;;29.08;6.30;;;;;;;14.32;59.10;100013.13;4991756;28;122870;-67
2021/05/16 03:27:38;;;;;;;17.08;5.22;;;;;;;14.32;59.08;100010.47;5003218;28;114116;-67
2021/05/16 03:30:08;;;;;;;26.23;5.80;;;;;;;14.33;59.19;100014.81;4993379;28;113659;-67
2021/05/16 03:32:36;;;;;;;27.38;5.95;;;;;;;14.33;59.23;100020.13;4990722;28;123518;-67
2021/05/16 03:35:04;;;;;;;26.63;5.80;;;;;;;14.32;59.04;100016.63;4991747;28;124801;-67
2021/05/16 03:37:31;;;;;;;21.15;5.43;;;;;;;14.32;59.12;100018.44;4991134;28;113307;-68
2021/05/16 03:39:58;;;;;;;24.08;6.00;;;;;;;14.31;59.19;100017.56;4995663;28;112856;-67
2021/05/16 03:42:26;;;;;;;23.48;5.88;;;;;;;14.32;59.21;100018.44;4991185;28;124259;-67
2021/05/16 03:44:54;;;;;;;29.50;6.35;;;;;;;14.33;59.23;100017.47;4991420;28;122823;-67
2021/05/16 03:47:22;;;;;;;22.30;5.63;;;;;;;14.34;59.21;100021.84;4977710;28;113329;-66
2021/05/16 03:49:49;;;;;;;23.80;5.32;;;;;;;14.35;59.15;100018.19;4987506;28;114237;-67
2021/05/16 03:52:19;;;;;;;26.67;5.47;;;;;;;14.33;59.04;100017.47;4995182;28;123675;-66
2021/05/16 03:54:47;;;;;;;26.02;5.32;;;;;;;14.31;59.00;100022.06;4991435;28;125657;-67
2021/05/16 03:57:16;;;;;;;30.02;5.80;;;;;;;14.29;59.16;100024.00;4990943;28;114391;-67
2021/05/16 03:59:44;;;;;;;24.65;5.90;;;;;;;14.29;59.20;100024.00;4990583;28;114794;-68
2021/05/16 04:02:11;;;;;;;24.40;6.43;;;;;;;14.27;59.21;100025.91;4991266;28;124328;-67
2021/05/16 04:04:38;;;;;;;28.48;5.85;;;;;;;14.26;58.94;100040.19;4991409;28;123679;-68
2021/05/16 04:07:05;;;;;;;25.05;6.35;;;;;;;14.25;59.23;100027.84;4991757;28;115161;-68
2021/05/16 04:09:32;;;;;;;24.20;6.07;;;;;;;14.24;59.23;100036.78;4991694;28;114709;-67
2021/05/16 04:12:00;;;;;;;24.75;5.90;;;;;;;14.23;58.82;100029.78;4993685;28;124637;-67
2021/05/16 04:14:28;;;;;;;25.20;5.50;;;;;;;14.21;59.23;100033.38;4992381;28;123744;-68
2021/05/16 04:16:56;;;;;;;21.88;6.47;;;;;;;14.23;59.31;100029.78;4992559;28;114409;-67
2021/05/16 04:19:23;;;;;;;22.20;6.65;;;;;;;14.23;59.31;100032.44;4991897;28;113251;-68
2021/05/16 04:21:50;;;;;;;26.40;5.95;;;;;;;14.24;59.46;100031.47;4991568;28;124751;-68
2021/05/16 04:24:17;;;;;;;27.35;5.97;;;;;;;14.25;59.26;100028.69;4975252;28;122819;-66
2021/05/16 04:26:45;;;;;;;23.98;7.00;;;;;;;14.28;59.35;100027.59;4992027;28;114567;-69
2021/05/16 04:29:12;;;;;;;33.38;7.13;;;;;;;14.29;59.22;100034.66;4974948;28;113108;-67
2021/05/16 04:31:44;;;;;;;22.60;6.43;;;;;;;14.28;59.10;100032.94;4993356;28;123021;-67
2021/05/16 04:34:11;;;;;;;31.80;7.13;;;;;;;14.28;59.05;100027.59;4994439;28;124236;-67
2021/05/16 04:36:38;;;;;;;26.98;7.15;;;;;;;14.28;59.06;100028.47;4994386;28;114665;-67
2021/05/16 04:39:05;;;;;;;23.80;6.68;;;;;;;14.29;59.18;100037.31;4988330;28;114086;-67
2021/05/16 04:41:33;;;;;;;30.58;7.55;;;;;;;14.30;59.12;100036.34;4991541;28;123026;-67
2021/05/16 04:44:01;;;;;;;28.60;7.50;;;;;;;14.31;59.03;100032.72;4992167;28;122376;-67
2021/05/16 04:46:28;;;;;;;25.48;7.85;;;;;;;14.31;59.10;100043.38;4993005;28;115045;-67
2021/05/16 04:48:55;;;;;;;26.27;7.88;;;;;;;14.30;59.00;100031.03;4990142;28;114363;-67
2021/05/16 04:51:22;;;;;;;26.85;7.80;;;;;;;14.32;59.19;100026.44;4992913;28;124268;-67
2021/05/16 04:53:49;;;;;;;34.13;7.15;;;;;;;14.34;59.01;100032.50;4990769;28;122708;-67
2021/05/16 04:56:17;;;;;;;27.60;7.40;;;;;;;14.37;58.80;100038.47;4992584;28;114359;-67
2021/05/16 04:58:44;;;;;;;29.20;7.75;;;;;;;14.39;58.78;100041.84;4992513;28;113703;-67
2021/05/16 05:01:11;;;;;;;21.15;6.80;;;;;;;14.42;58.84;100046.09;4994034;28;122770;-67
2021/05/16 05:03:39;;;;;;;27.92;6.30;;;;;;;14.43;58.68;100036.28;4992612;28;123654;-67
2021/05/16 05:06:06;;;;;;;29.02;6.05;;;;;;;14.45;58.78;100040.56;4991513;28;114109;-67
2021/05/16 05:08:33;;;;;;;27.27;6.55;;;;;;;14.46;58.70;100042.22;4992408;28;113744;-69
2021/05/16 05:11:00;;;;;;;27.27;6.50;;;;;;;14.46;58.68;100039.56;4988852;28;123059;-68
2021/05/16 05:13:28;;;;;;;23.83;5.80;;;;;;;14.48;58.54;100042.97;4988106;28;124486;-68
2021/05/16 05:15:55;;;;;;;25.45;6.00;;;;;;;14.47;58.68;100038.63;4987992;28;113135;-66
2021/05/16 05:18:22;;;;;;;25.08;6.45;;;;;;;14.47;58.49;100043.94;5023006;22;114417;-69
2021/05/16 05:20:50;;;;;;;27.77;5.78;;;;;;;14.48;58.42;100045.63;4980463;28;124074;-70
2021/05/16 05:23:18;;;;;;;28.60;6.43;;;;;;;14.49;58.41;100052.66;4976166;28;124177;-70
2021/05/16 05:25:46;;;;;;;23.45;6.40;;;;;;;14.49;58.39;100052.66;4974089;28;114012;-70
2021/05/16 05:28:16;;;;;;;28.33;6.82;;;;;;;14.52;58.47;100051.59;4990331;28;114045;-70
2021/05/16 05:30:44;;;;;;;27.92;6.55;;;;;;;14.55;58.49;100052.22;4990880;28;124280;-70
2021/05/16 05:33:11;;;;;;;29.38;6.78;;;;;;;14.57;58.62;100055.63;4988456;28;124753;-70
2021/05/16 05:35:38;;;;;;;27.90;6.85;;;;;;;14.60;58.44;100058.09;4990962;28;115478;-70
2021/05/16 05:38:06;;;;;;;30.23;6.90;;;;;;;14.62;58.45;100062.44;4988917;28;114250;-69
2021/05/16 05:40:33;;;;;;;32.05;7.05;;;;;;;14.65;58.42;100062.22;4987908;28;123910;-70
2021/05/16 05:43:00;;;;;;;34.38;7.40;;;;;;;14.64;58.26;100057.88;4989586;28;122812;-70
2021/05/16 05:45:27;;;;;;;29.65;7.20;;;;;;;14.64;58.00;100060.53;4989067;28;113694;-70
2021/05/16 05:47:55;;;;;;;28.52;6.72;;;;;;;14.62;58.11;100068.63;4989021;28;112929;-70
2021/05/16 05:50:23;;;;;;;28.52;7.30;;;;;;;14.63;58.09;100064.16;4980049;28;124710;-70
2021/05/16 05:52:51;;;;;;;23.77;7.25;;;;;;;14.63;58.00;100064.16;4991459;28;123856;-70
2021/05/16 05:55:18;;;;;;;27.00;7.05;;;;;;;14.63;58.16;100069.47;4991225;28;114438;-70
2021/05/16 05:57:45;;;;;;;26.90;6.43;;;;;;;14.61;58.00;100064.25;4999752;28;113171;-70
2021/05/16 06:00:13;;;;;;;30.35;7.10;;;;;;;14.62;58.16;100070.44;4986887;28;124804;-70
2021/05/16 06:02:40;;;;;;;30.98;6.90;;;;;;;14.62;58.01;100073.97;4986033;28;124670;-70
2021/05/16 06:05:08;;;;;;;30.65;6.65;;;;;;;14.63;58.13;100074.81;4987533;28;114918;-70
2021/05/16 06:07:35;;;;;;;29.92;6.50;;;;;;;14.68;58.05;100075.31;4988970;28;114792;-70
2021/05/16 06:10:04;;;;;;;25.88;6.50;;;;;;;14.69;58.02;100069.00;4988976;28;124022;-70
2021/05/16 06:12:31;;;;;;;25.55;6.15;;;;;;;14.70;57.87;100068.06;4983042;28;122853;-70
2021/05/16 06:15:01;;;;;;;23.70;6.30;;;;;;;14.72;57.97;100076.78;4988790;28;114478;-70
2021/05/16 06:17:28;;;;;;;33.55;7.28;;;;;;;14.74;57.82;100074.88;5007225;28;114336;-70
2021/05/16 06:19:55;;;;;;;23.50;6.38;;;;;;;14.75;57.85;100079.25;4991058;28;124036;-70
2021/05/16 06:22:22;;;;;;;29.25;6.50;;;;;;;14.75;57.91;100079.25;5004610;28;122585;-70
2021/05/16 06:24:50;;;;;;;23.73;6.53;;;;;;;14.78;57.94;100073.66;4992138;28;115992;-70
2021/05/16 06:27:17;;;;;;;31.92;7.72;;;;;;;14.81;58.05;100078.78;4992107;28;115085;-69
2021/05/16 06:29:44;;;;;;;26.13;6.82;;;;;;;14.82;57.97;100080.47;5007845;28;124287;-70
2021/05/16 06:32:11;;;;;;;24.55;7.22;;;;;;;14.85;57.89;100088.22;4991905;28;124292;-70
2021/05/16 06:34:38;;;;;;;24.85;7.68;;;;;;;14.86;57.83;100087.28;4979714;28;113856;-70
2021/05/16 06:37:05;;;;;;;26.30;7.38;;;;;;;14.87;57.83;100088.97;4989966;28;114329;-69
2021/05/16 06:39:32;;;;;;;26.15;7.95;;;;;;;14.89;57.37;100087.03;4986308;28;124673;-70
2021/05/16 06:42:00;;;;;;;27.02;8.48;;;;;;;14.91;57.67;100090.44;4998432;28;122814;-70
2021/05/16 06:44:28;;;;;;;31.10;7.63;;;;;;;14.93;57.63;100096.50;4990131;28;115069;-70
2021/05/16 06:46:55;;;;;;;26.92;7.70;;;;;;;14.96;57.85;100101.59;4992836;28;113105;-70
2021/05/16 06:49:22;;;;;;;22.58;7.05;;;;;;;14.99;57.61;100098.72;4991178;28;123873;-70
2021/05/16 06:51:50;;;;;;;21.80;6.75;;;;;;;15.02;57.44;100102.13;4994511;28;124404;-70
2021/05/16 06:54:17;;;;;;;21.13;6.20;;;;;;;15.04;57.61;100095.69;4995351;28;114062;-71
2021/05/16 06:56:44;;;;;;;28.58;6.85;;;;;;;15.08;57.57;100098.97;4995441;28;113537;-69
2021/05/16 06:59:11;;;;;;;23.60;6.50;;;;;;;15.12;57.53;100092.44;4990088;28;124432;-69
2021/05/16 07:01:39;;;;;;;23.20;6.35;;;;;;;15.17;57.70;100103.63;4986949;28;124424;-69
2021/05/16 07:04:06;;;;;;;19.92;5.82;;;;;;;15.22;57.66;100096.13;4990007;28;114937;-70
2021/05/16 07:06:33;;;;;;;30.67;6.35;;;;;;;15.27;57.64;100091.25;4984758;28;113899;-70
2021/05/16 07:09:00;;;;;;;22.45;6.57;;;;;;;15.35;57.69;100094.22;4985950;28;123513;-70
2021/05/16 07:11:27;;;;;;;27.55;6.32;;;;;;;15.47;58.02;100096.91;4988321;28;124468;-71
2021/05/16 07:13:54;;;;;;;28.73;6.43;;;;;;;15.56;57.62;100096.19;4963744;28;114205;-70
2021/05/16 07:16:21;;;;;;;27.23;6.95;;;;;;;15.66;57.45;100096.31;4986524;28;115092;-70
2021/05/16 07:18:49;;;;;;;22.70;6.28;;;;;;;15.76;57.53;100098.19;4986740;28;124285;-70
2021/05/16 07:21:16;;;;;;;24.48;6.47;;;;;;;15.87;57.44;100104.47;4985688;28;124476;-71
2021/05/16 07:23:43;;;;;;;24.98;6.47;;;;;;;15.98;57.22;100100.97;4994940;28;112375;-71
2021/05/16 07:26:10;;;;;;;32.25;6.50;;;;;;;16.07;57.00;100103.75;4989694;28;114327;-71
2021/05/16 07:28:37;;;;;;;24.02;6.03;;;;;;;16.12;56.58;100093.56;4985196;28;124933;-72
2021/05/16 07:31:04;;;;;;;22.88;6.40;;;;;;;16.14;56.16;100112.97;4983273;28;122760;-70
2021/05/16 07:33:31;;;;;;;24.70;6.03;;;;;;;16.12;55.92;100104.22;5005172;28;113516;-71
2021/05/16 07:35:58;;;;;;;21.33;6.00;;;;;;;16.14;56.06;100106.75;4988228;28;113280;-70
2021/05/16 07:38:26;;;;;;;23.83;6.68;;;;;;;16.17;55.88;100103.00;4988715;28;124019;-70
2021/05/16 07:40:53;;;;;;;22.98;6.70;;;;;;;16.21;55.90;100101.78;4988287;28;124282;-71
2021/05/16 07:43:20;;;;;;;28.63;7.57;;;;;;;16.23;56.02;100110.53;5005562;28;114916;-70
2021/05/16 07:45:52;;;;;;;26.63;7.07;;;;;;;16.27;55.71;100106.63;4982510;28;115969;-71
2021/05/16 07:48:28;;;;;;;25.38;6.90;;;;;;;16.27;55.43;100106.63;4983463;28;123275;-71
2021/05/16 07:50:59;;;;;;;;;;;;;;;16.27;55.83;100111.97;4991933;28;123710;-71
2021/05/16 07:53:27;;;;;;;26.42;7.30;;;;;;;16.33;55.67;100106.13;4990636;28;114716;-71
2021/05/16 07:55:54;;;;;;;26.50;7.28;;;;;;;16.35;55.27;100109.53;4991991;28;114015;-71
2021/05/16 07:58:21;;;;;;;26.77;7.15;;;;;;;16.34;55.13;100108.69;5001826;28;123242;-70
2021/05/16 08:00:48;;;;;;;26.58;7.40;;;;;;;16.33;55.16;100114.13;4992242;28;125185;-71
2021/05/16 08:03:16;;;;;;;26.17;6.88;;;;;;;16.35;55.24;100106.88;5007745;28;115503;-71
2021/05/16 08:05:43;;;;;;;20.00;6.18;;;;;;;16.38;55.18;100103.94;4992924;28;115173;-71
2021/05/16 08:08:10;;;;;;;24.42;6.05;;;;;;;16.41;55.25;100113.53;4992128;28;124329;-71
2021/05/16 08:10:37;;;;;;;26.55;6.10;;;;;;;16.46;55.24;100101.50;4991175;28;124028;-71
2021/05/16 08:13:04;;;;;;;20.55;6.13;;;;;;;16.53;55.19;100113.38;4981443;28;114844;-71
2021/05/16 08:15:33;;;;;;;21.63;5.63;;;;;;;16.57;54.49;100107.78;4992648;28;113994;-70
2021/05/16 08:18:04;;;;;;;17.00;5.22;;;;;;;16.57;54.44;100107.78;5006796;28;122233;-70
2021/05/16 08:20:32;;;;;;;22.13;5.30;;;;;;;16.59;54.60;100105.81;4992952;28;124096;-70
2021/05/16 08:22:59;;;;;;;26.27;5.50;;;;;;;16.63;54.41;100107.28;4992759;28;114275;-70
2021/05/16 08:25:26;;;;;;;24.08;5.40;;;;;;;16.68;54.66;100105.06;4993419;28;114633;-71
2021/05/16 08:27:54;;;;;;;13.68;4.28;;;;;;;16.74;54.37;100113.44;4992089;28;124937;-69
2021/05/16 08:30:21;;;;;;;21.65;4.93;;;;;;;16.83;54.13;100098.47;4992294;28;124195;-70
2021/05/16 08:32:48;;;;;;;18.40;4.50;;;;;;;16.92;54.34;100103.06;4993113;28;114582;-70
2021/05/16 08:35:15;;;;;;;17.15;4.43;;;;;;;17.07;53.86;100105.44;4992590;28;114525;-70
2021/05/16 08:37:43;;;;;;;20.95;4.50;;;;;;;17.24;54.09;100098.66;4991892;28;123970;-70
2021/05/16 08:40:11;;;;;;;17.33;4.40;;;;;;;17.40;53.87;100090.16;4991826;28;124350;-70
2021/05/16 08:42:38;;;;;;;19.33;4.00;;;;;;;17.49;53.34;100095.56;4992299;28;114291;-70
2021/05/16 08:45:09;;;;;;;14.68;3.75;;;;;;;17.57;52.92;100092.22;4991194;28;113091;-71
2021/05/16 08:47:38;;;;;;;14.57;3.97;;;;;;;17.64;52.57;100098.75;4977896;28;124212;-70
2021/05/16 08:50:08;;;;;;;21.70;4.60;;;;;;;17.64;52.02;100093.41;4992107;28;124811;-70
2021/05/16 08:52:36;;;;;;;14.38;3.80;;;;;;;17.61;52.12;100091.00;4990930;28;115326;-69
2021/05/16 08:55:05;;;;;;;18.35;4.13;;;;;;;17.56;51.58;100095.91;5007541;28;113360;-70
2021/05/16 08:57:39;;;;;;;20.27;4.70;;;;;;;17.51;51.88;100098.13;4990452;28;124372;-70
2021/05/16 09:00:11;;;;;;;20.88;4.57;;;;;;;17.51;52.06;100103.47;4991745;28;124480;-70
2021/05/16 09:03:11;;;;;;;21.10;5.30;;;;;;;17.49;51.99;100102.75;4988860;28;114243;-70
2021/05/16 09:05:44;;;;;;;21.40;5.78;;;;;;;17.49;51.83;100094.72;5007589;28;114392;-69
2021/05/16 09:08:22;;;;;;;23.40;6.07;;;;;;;17.46;51.28;100098.53;4991118;28;124317;-70
2021/05/16 09:10:56;;;;;;;21.90;6.15;;;;;;;17.40;51.17;100100.88;4990565;28;124659;-71
2021/05/16 09:13:44;;;;;;;18.75;5.03;;;;;;;17.40;51.67;100095.50;4991634;28;114834;-71
2021/05/16 09:16:14;;;;;;;18.13;6.35;;;;;;;17.47;51.80;100099.38;4988525;28;114310;-70
2021/05/16 09:18:52;;;;;;;17.20;5.70;;;;;;;17.54;51.68;100097.88;4978183;28;124210;-70
2021/05/16 09:21:33;;;;;;;20.17;6.35;;;;;;;17.61;51.61;100098.16;4990432;28;124500;-70
2021/05/16 09:24:03;;;;;;;19.52;6.15;;;;;;;17.65;51.07;100097.78;4980845;28;115302;-71
2021/05/16 09:26:35;;;;;;;16.35;5.70;;;;;;;17.71;51.25;100104.44;4991993;28;114883;-70
2021/05/16 09:29:28;;;;;;;20.65;6.50;;;;;;;17.78;51.32;100104.72;4983748;28;124089;-70
2021/05/16 09:31:57;;;;;;;16.80;5.97;;;;;;;17.86;50.91;100095.09;4989326;28;122978;-70
2021/05/16 09:34:25;;;;;;;15.93;5.78;;;;;;;17.95;51.20;100096.13;4990446;28;114273;-70
2021/05/16 09:36:54;;;;;;;17.15;5.55;;;;;;;18.06;50.91;100098.69;4991399;28;113805;-70
2021/05/16 09:39:29;;;;;;;16.45;5.30;;;;;;;18.18;50.65;100090.56;4991214;28;124366;-70
2021/05/16 09:42:07;;;;;;;20.83;5.82;;;;;;;18.32;51.24;100092.81;4988362;28;123377;-70
2021/05/16 09:44:37;;;;;;;19.88;5.75;;;;;;;18.51;50.89;100085.81;4990582;28;115144;-70
2021/05/16 09:47:20;;;;;;;17.88;5.45;;;;;;;18.64;50.24;100086.38;4972582;28;113844;-71
2021/05/16 09:49:53;;;;;;;18.13;5.25;;;;;;;18.77;50.15;100080.75;4988404;28;124134;-71
2021/05/16 09:52:24;;;;;;;16.15;4.63;;;;;;;18.90;50.18;100075.16;4988324;28;124264;-70
2021/05/16 09:55:01;;;;;;;18.70;5.20;;;;;;;19.06;50.10;100070.03;4991480;28;114538;-70
2021/05/16 09:57:33;;;;;;;14.82;4.18;;;;;;;19.22;50.06;100072.97;5005785;28;114051;-70
2021/05/16 10:00:06;;;;;;;13.15;4.03;;;;;;;19.40;49.20;100066.84;4990758;28;98411;-70
2021/05/16 10:02:34;;;;;;;14.48;4.15;;;;;;;19.51;48.35;100074.75;4989480;28;124632;-70
2021/05/16 10:05:04;;;;;;;14.90;3.72;;;;;;;19.53;48.14;100070.06;4991110;28;114410;-70
2021/05/16 10:07:31;;;;;;;16.55;4.28;;;;;;;19.56;48.23;100072.47;4977176;28;114664;-70
2021/05/16 10:09:59;;;;;;;17.20;4.15;;;;;;;19.58;47.70;100075.84;4987802;28;124295;-71
2021/05/16 10:12:27;;;;;;;15.50;4.15;;;;;;;19.57;47.40;100071.50;4989705;28;124223;-70
2021/05/16 10:15:01;;;;;;;11.80;3.42;;;;;;;19.56;47.19;100072.47;4989997;28;114634;-71
2021/05/16 10:17:35;;;;;;;12.13;3.53;;;;;;;19.56;47.32;100060.88;4988612;28;113763;-71
2021/05/16 10:20:11;;;;;;;11.90;3.10;;;;;;;19.60;47.55;100060.44;5001925;28;124515;-70
2021/05/16 10:22:38;;;;;;;12.77;3.30;;;;;;;19.70;47.85;100056.88;4988111;28;124074;-70
2021/05/16 10:25:06;;;;;;;11.23;2.72;;;;;;;19.81;46.95;100054.03;4984063;28;112577;-70
2021/05/16 10:27:44;;;;;;;11.57;2.78;;;;;;;19.88;46.91;100060.50;5004496;28;114260;-71
2021/05/16 10:30:17;;;;;;;14.60;3.47;;;;;;;19.95;47.16;100050.84;4987377;28;123395;-70
2021/05/16 10:32:50;;;;;;;13.70;3.80;;;;;;;20.01;46.41;100044.88;5004398;28;122778;-70
2021/05/16 10:35:17;;;;;;;12.90;3.28;;;;;;;19.99;46.54;100046.88;4987896;28;114974;-70
2021/05/16 10:37:50;;;;;;;13.15;3.08;;;;;;;19.95;46.73;100050.03;4986654;28;114629;-70
2021/05/16 10:40:21;;;;;;;10.50;3.03;;;;;;;19.99;46.75;100044.19;4986482;28;124333;-70
2021/05/16 10:42:50;;;;;;;12.65;2.60;;;;;;;20.00;46.47;100048.56;4987089;28;124089;-71
2021/05/16 10:45:21;;;;;;;12.07;3.10;;;;;;;20.01;46.07;100039.50;4989154;28;114515;-71
2021/05/16 10:47:51;;;;;;;11.85;3.13;;;;;;;20.03;46.41;100032.13;4987150;28;113787;-71
2021/05/16 10:50:18;;;;;;;8.45;2.65;;;;;;;20.07;46.34;100031.84;4988201;28;126757;-71
2021/05/16 10:53:05;;;;;;;10.85;2.75;;;;;;;20.10;46.84;100036.91;4985236;28;124616;-71
2021/05/16 10:55:49;;;;;;;11.77;2.80;;;;;;;20.18;46.58;100028.94;4984323;28;114341;-71
2021/05/16 10:58:31;;;;;;;11.52;2.85;;;;;;;20.30;46.86;100014.25;4987936;28;113995;-71
2021/05/16 11:01:06;;;;;;;7.20;2.10;;;;;;;20.40;45.42;100017.75;4985279;28;124399;-71
2021/05/16 11:03:57;;;;;;;8.80;2.28;;;;;;;20.49;45.85;100009.75;5003140;28;123589;-71
2021/05/16 11:06:46;;;;;;;8.27;2.25;;;;;;;20.58;44.77;100016.88;4985339;28;114626;-71
2021/05/16 11:09:14;;;;;;;9.85;2.10;;;;;;;20.63;44.95;100011.94;4982640;28;114071;-71
2021/05/16 11:11:53;;;;;;;5.97;1.75;;;;;;;20.70;44.56;100004.94;4989528;28;124324;-71
2021/05/16 11:14:26;;;;;;;7.07;1.80;;;;;;;20.80;44.44;100012.91;4984633;28;124722;-70
2021/05/16 11:17:03;;;;;;;11.25;3.00;;;;;;;20.89;44.28;100011.97;5024505;22;113914;-66
2021/05/16 11:19:33;;;;;;;7.13;1.85;;;;;;;21.01;44.06;100009.88;4969484;28;112653;-64